Time;durP1;ratioP1;P1;durP2;ratioP2;P2;SDS_P1;SDS_P2;PMS_P1;PMS_P2;Temp;Humidity;BMP_temperature;BMP_pressure;BME280_temperature;BME280_humidity;BME280_pressure;Samples;Min_cycle;Max_cycle;Signal;HPM_P1;HPM_P2
2023/03/10 00:02:22;;;;;;;0.80;0.77;;;;;;;;;;4983727;28;20313;-83
2023/03/10 00:04:51;;;;;;;0.82;0.82;;;;;;;;;;5000355;28;20785;-83
2023/03/10 00:07:19;;;;;;;0.90;0.80;;;;;;;;;;4983376;28;20565;-83
2023/03/10 00:09:48;;;;;;;2.67;1.25;;;;;;;;;;5000247;28;20282;-83
2023/03/10 00:12:16;;;;;;;1.50;0.85;;;;;;;;;;5000664;28;20210;-83
2023/03/10 00:14:45;;;;;;;2.85;0.85;;;;;;;;;;4999737;28;20769;-83
2023/03/10 00:17:16;;;;;;;1.60;0.85;;;;;;;;;;4999522;28;20198;-84
2023/03/10 00:19:44;;;;;;;1.40;0.93;;;;;;;;;;5000180;28;20278;-83
2023/03/10 00:22:12;;;;;;;1.95;0.90;;;;;;;;;;5000785;28;20266;-84
2023/03/10 00:24:41;;;;;;;1.23;0.80;;;;;;;;;;4985220;28;20273;-84
2023/03/10 00:27:09;;;;;;;2.15;0.70;;;;;;;;;;5000676;28;20221;-84
2023/03/10 00:29:38;;;;;;;0.80;0.80;;;;;;;;;;5000441;28;20293;-84
2023/03/10 00:32:07;;;;;;;3.17;1.00;;;;;;;;;;4999525;28;20206;-84
2023/03/10 00:34:38;;;;;;;1.70;0.80;;;;;;;;;;4979852;28;20215;-84
2023/03/10 00:37:08;;;;;;;1.55;0.93;;;;;;;;;;4980389;28;20267;-84
2023/03/10 00:39:37;;;;;;;1.10;1.00;;;;;;;;;;4996995;28;20679;-83
2023/03/10 00:42:05;;;;;;;0.60;0.60;;;;;;;;;;4979765;28;20307;-84
2023/03/10 00:44:34;;;;;;;1.73;0.90;;;;;;;;;;4979840;28;20221;-84
2023/03/10 00:47:02;;;;;;;0.90;0.70;;;;;;;;;;4980909;28;20271;-84
2023/03/10 00:49:30;;;;;;;2.00;0.85;;;;;;;;;;4995698;28;20282;-83
2023/03/10 00:52:02;;;;;;;2.85;1.20;;;;;;;;;;4980326;28;20726;-83
2023/03/10 00:54:30;;;;;;;1.55;1.05;;;;;;;;;;4977771;28;20290;-84
2023/03/10 00:56:58;;;;;;;1.10;0.80;;;;;;;;;;4994891;28;20349;-84
2023/03/10 00:59:26;;;;;;;1.83;0.95;;;;;;;;;;4978893;28;20781;-84
2023/03/10 01:01:55;;;;;;;0.75;0.70;;;;;;;;;;4980695;28;20298;-83
2023/03/10 01:04:23;;;;;;;1.20;1.10;;;;;;;;;;4977767;28;20286;-84
2023/03/10 01:06:51;;;;;;;1.00;0.90;;;;;;;;;;4979246;28;20289;-84
2023/03/10 01:09:21;;;;;;;2.67;1.10;;;;;;;;;;4981131;28;20282;-83
2023/03/10 01:11:49;;;;;;;1.10;1.00;;;;;;;;;;4998918;28;20341;-83
2023/03/10 01:14:18;;;;;;;0.70;0.68;;;;;;;;;;4998828;28;20305;-83
2023/03/10 01:16:46;;;;;;;0.75;0.73;;;;;;;;;;4983359;28;20270;-83
2023/03/10 01:19:17;;;;;;;0.82;0.80;;;;;;;;;;4983436;28;20573;-84
2023/03/10 01:21:45;;;;;;;0.90;0.90;;;;;;;;;;4984213;28;20282;-84
2023/03/10 01:24:15;;;;;;;0.90;0.90;;;;;;;;;;4983394;28;20254;-84
2023/03/10 01:26:45;;;;;;;0.80;0.77;;;;;;;;;;4982691;28;20260;-84
2023/03/10 01:29:14;;;;;;;2.70;0.80;;;;;;;;;;4999488;28;20240;-84
2023/03/10 01:31:42;;;;;;;4.40;0.82;;;;;;;;;;4999656;28;20289;-84
2023/03/10 01:34:10;;;;;;;1.80;0.93;;;;;;;;;;4998801;28;20360;-84
2023/03/10 01:36:41;;;;;;;0.85;0.70;;;;;;;;;;4998946;28;20733;-84
2023/03/10 01:39:09;;;;;;;1.50;0.98;;;;;;;;;;4994568;28;20267;-85
2023/03/10 01:41:38;;;;;;;0.80;0.80;;;;;;;;;;4983372;28;20348;-84
2023/03/10 01:44:13;;;;;;;0.88;0.88;;;;;;;;;;4983253;28;20285;-84
2023/03/10 01:46:49;;;;;;;1.52;0.80;;;;;;;;;;4998147;28;20269;-84
2023/03/10 01:49:26;;;;;;;1.33;1.23;;;;;;;;;;4983650;28;20333;-84
2023/03/10 01:51:56;;;;;;;1.35;0.80;;;;;;;;;;4998078;28;20274;-84
2023/03/10 01:54:26;;;;;;;1.15;0.80;;;;;;;;;;4999268;28;20667;-84
2023/03/10 01:56:56;;;;;;;1.45;0.82;;;;;;;;;;4999045;28;20258;-84
2023/03/10 01:59:27;;;;;;;1.13;0.80;;;;;;;;;;4983040;28;20254;-84
2023/03/10 02:01:58;;;;;;;2.15;0.90;;;;;;;;;;4997944;28;20197;-84
2023/03/10 02:04:30;;;;;;;1.08;1.08;;;;;;;;;;4996927;28;20333;-84
2023/03/10 02:06:59;;;;;;;0.90;0.90;;;;;;;;;;4997096;28;20305;-84
2023/03/10 02:09:28;;;;;;;2.90;1.10;;;;;;;;;;4998653;28;20297;-84
2023/03/10 02:11:58;;;;;;;2.13;1.35;;;;;;;;;;4999115;28;20282;-84
2023/03/10 02:14:30;;;;;;;1.20;1.10;;;;;;;;;;4998973;28;20244;-84
2023/03/10 02:16:58;;;;;;;1.52;1.10;;;;;;;;;;5013628;28;20254;-84
2023/03/10 02:19:34;;;;;;;2.90;1.52;;;;;;;;;;4999395;28;20689;-84
2023/03/10 02:22:05;;;;;;;1.70;1.60;;;;;;;;;;4999596;28;20266;-84
2023/03/10 02:24:40;;;;;;;1.85;1.05;;;;;;;;;;4999251;28;20266;-85
2023/03/10 02:27:21;;;;;;;2.17;1.30;;;;;;;;;;4982442;28;20203;-84
2023/03/10 02:29:52;;;;;;;2.05;1.60;;;;;;;;;;4985235;28;20778;-84
2023/03/10 02:32:21;;;;;;;1.48;1.38;;;;;;;;;;5002439;28;20697;-85
2023/03/10 02:34:50;;;;;;;1.80;1.65;;;;;;;;;;4985230;28;20620;-85
2023/03/10 02:37:20;;;;;;;3.50;1.90;;;;;;;;;;5001468;28;20581;-85
2023/03/10 02:39:48;;;;;;;1.73;1.63;;;;;;;;;;5001882;28;20334;-85
2023/03/10 02:42:17;;;;;;;1.40;1.30;;;;;;;;;;4981946;28;20267;-84
2023/03/10 02:44:47;;;;;;;1.73;1.55;;;;;;;;;;5016154;28;20713;-84
2023/03/10 02:47:16;;;;;;;2.25;1.45;;;;;;;;;;5003645;28;20266;-84
2023/03/10 02:49:45;;;;;;;1.75;1.65;;;;;;;;;;4990669;28;20798;-84
2023/03/10 02:52:19;;;;;;;1.55;1.38;;;;;;;;;;4984911;28;20344;-85
2023/03/10 02:54:48;;;;;;;1.55;1.45;;;;;;;;;;5000395;28;20301;-85
2023/03/10 02:57:16;;;;;;;1.92;1.50;;;;;;;;;;5017414;28;20725;-85
2023/03/10 02:59:45;;;;;;;1.92;1.75;;;;;;;;;;4985384;28;20281;-84
2023/03/10 03:02:14;;;;;;;2.45;1.80;;;;;;;;;;5001349;28;20289;-84
2023/03/10 03:04:43;;;;;;;4.00;1.38;;;;;;;;;;5001566;28;20289;-85
2023/03/10 03:07:11;;;;;;;2.53;1.70;;;;;;;;;;5001599;28;20305;-84
2023/03/10 03:09:40;;;;;;;3.45;1.67;;;;;;;;;;5001942;28;20281;-84
2023/03/10 03:12:09;;;;;;;4.10;1.65;;;;;;;;;;5001708;28;20289;-85
2023/03/10 03:14:38;;;;;;;1.98;1.55;;;;;;;;;;4985761;28;20278;-85
2023/03/10 03:17:08;;;;;;;1.95;1.60;;;;;;;;;;5000290;28;20266;-85
2023/03/10 03:19:37;;;;;;;2.58;1.67;;;;;;;;;;5001450;28;20277;-84
2023/03/10 03:22:06;;;;;;;1.83;1.60;;;;;;;;;;5000817;28;20290;-84
2023/03/10 03:24:34;;;;;;;2.25;1.40;;;;;;;;;;5001830;28;20278;-84
2023/03/10 03:27:05;;;;;;;6.53;2.50;;;;;;;;;;4983742;28;20299;-84
2023/03/10 03:29:33;;;;;;;1.50;1.40;;;;;;;;;;5000772;28;20274;-84
2023/03/10 03:32:01;;;;;;;2.28;1.60;;;;;;;;;;5001202;28;20817;-85
2023/03/10 03:34:34;;;;;;;1.85;1.50;;;;;;;;;;5000923;28;20217;-85
2023/03/10 03:37:06;;;;;;;2.28;1.55;;;;;;;;;;5000363;28;20258;-85
2023/03/10 03:39:38;;;;;;;3.35;1.30;;;;;;;;;;5001414;28;20274;-85
2023/03/10 03:42:09;;;;;;;1.85;1.45;;;;;;;;;;5000474;28;20274;-85
2023/03/10 03:44:46;;;;;;;5.40;1.70;;;;;;;;;;5001893;28;20270;-84
2023/03/10 03:47:15;;;;;;;4.72;1.58;;;;;;;;;;4984401;28;20684;-84
2023/03/10 03:49:43;;;;;;;6.20;4.53;;;;;;;;;;4985102;28;20342;-85
2023/03/10 03:52:14;;;;;;;10.90;8.95;;;;;;;;;;4984109;28;20254;-85
2023/03/10 03:54:42;;;;;;;14.35;9.98;;;;;;;;;;4999132;28;20203;-85
2023/03/10 03:57:11;;;;;;;2.55;2.35;;;;;;;;;;5000883;28;20356;-84
2023/03/10 03:59:39;;;;;;;7.53;5.30;;;;;;;;;;4999501;28;20289;-84
2023/03/10 04:02:07;;;;;;;6.78;4.95;;;;;;;;;;4997409;28;20606;-84
2023/03/10 04:04:36;;;;;;;13.63;9.25;;;;;;;;;;4999888;28;20281;-84
2023/03/10 04:07:04;;;;;;;36.40;22.02;;;;;;;;;;4996045;28;20297;-85
2023/03/10 04:09:35;;;;;;;6.95;4.65;;;;;;;;;;4999133;28;20273;-85
2023/03/10 04:12:05;;;;;;;35.55;20.40;;;;;;;;;;4979569;28;20196;-85
2023/03/10 04:14:35;;;;;;;15.50;8.77;;;;;;;;;;4996831;28;20247;-85
2023/03/10 04:17:04;;;;;;;1.80;1.70;;;;;;;;;;4982238;28;20322;-84
2023/03/10 04:19:32;;;;;;;1.45;1.35;;;;;;;;;;4999630;28;20327;-84
2023/03/10 04:22:06;;;;;;;2.42;2.03;;;;;;;;;;4980566;28;20274;-85
2023/03/10 04:24:39;;;;;;;2.35;1.52;;;;;;;;;;4994337;28;20287;-84
2023/03/10 04:27:10;;;;;;;2.90;1.50;;;;;;;;;;4980447;28;20259;-84
2023/03/10 04:29:38;;;;;;;1.80;1.60;;;;;;;;;;4981182;28;20262;-84
2023/03/10 04:32:07;;;;;;;2.47;1.50;;;;;;;;;;4981324;28;20259;-84
2023/03/10 04:34:40;;;;;;;2.63;1.60;;;;;;;;;;4993416;28;20376;-84
2023/03/10 04:37:10;;;;;;;4.50;1.70;;;;;;;;;;5008616;28;20202;-84
2023/03/10 04:39:40;;;;;;;1.88;1.77;;;;;;;;;;4998160;28;20286;-84
2023/03/10 04:42:09;;;;;;;3.83;1.67;;;;;;;;;;4980916;28;20192;-85
2023/03/10 04:44:37;;;;;;;1.70;1.20;;;;;;;;;;4983493;28;20267;-85
2023/03/10 04:47:07;;;;;;;1.92;1.55;;;;;;;;;;4982563;28;20285;-85
2023/03/10 04:49:37;;;;;;;2.45;1.33;;;;;;;;;;4979469;28;20207;-84
2023/03/10 04:52:08;;;;;;;5.82;2.35;;;;;;;;;;5010955;28;20258;-84
2023/03/10 04:54:36;;;;;;;5.43;2.25;;;;;;;;;;4999202;28;20269;-83
2023/03/10 04:57:05;;;;;;;2.65;1.40;;;;;;;;;;4999863;28;20731;-84
2023/03/10 04:59:34;;;;;;;1.83;1.13;;;;;;;;;;4999490;28;20246;-84
2023/03/10 05:02:02;;;;;;;2.20;1.00;;;;;;;;;;4999016;28;20297;-84
2023/03/10 05:04:31;;;;;;;2.58;1.48;;;;;;;;;;4998275;28;20285;-84
2023/03/10 05:07:00;;;;;;;1.48;1.00;;;;;;;;;;5000562;28;20297;-84
2023/03/10 05:09:34;;;;;;;2.00;1.70;;;;;;;;;;4983714;28;20274;-84
2023/03/10 05:12:03;;;;;;;3.10;1.27;;;;;;;;;;4997373;28;20198;-84
2023/03/10 05:14:37;;;;;;;3.33;1.55;;;;;;;;;;4978958;28;20290;-84
2023/03/10 05:17:07;;;;;;;4.97;1.70;;;;;;;;;;4998273;28;20262;-84
2023/03/10 05:19:35;;;;;;;3.70;1.63;;;;;;;;;;4998443;28;20717;-83
2023/03/10 05:22:05;;;;;;;4.10;1.52;;;;;;;;;;4998913;28;20328;-84
2023/03/10 05:24:35;;;;;;;2.25;1.30;;;;;;;;;;4978992;28;20250;-84
2023/03/10 05:27:04;;;;;;;2.95;1.65;;;;;;;;;;4974470;28;20286;-84
2023/03/10 05:29:38;;;;;;;7.13;1.92;;;;;;;;;;4978934;28;20274;-84
2023/03/10 05:32:13;;;;;;;2.90;1.65;;;;;;;;;;4984909;28;20251;-84
2023/03/10 05:34:42;;;;;;;5.22;1.40;;;;;;;;;;4989619;28;20277;-84
2023/03/10 05:37:11;;;;;;;3.05;1.70;;;;;;;;;;5000417;28;20293;-84
2023/03/10 05:39:39;;;;;;;2.40;1.75;;;;;;;;;;4983717;28;20289;-84
2023/03/10 05:42:12;;;;;;;2.40;1.58;;;;;;;;;;4983490;28;20250;-83
2023/03/10 05:44:44;;;;;;;6.20;1.92;;;;;;;;;;4983111;28;20282;-84
2023/03/10 05:47:17;;;;;;;1.88;1.58;;;;;;;;;;5000252;28;20289;-84
2023/03/10 05:49:46;;;;;;;3.70;1.50;;;;;;;;;;4998649;28;20615;-84
2023/03/10 05:52:15;;;;;;;7.45;1.70;;;;;;;;;;5000027;28;20703;-84
2023/03/10 05:54:45;;;;;;;4.82;1.40;;;;;;;;;;4980402;28;20278;-84
2023/03/10 05:57:15;;;;;;;1.35;1.25;;;;;;;;;;5014650;28;20212;-84
2023/03/10 05:59:45;;;;;;;3.80;1.55;;;;;;;;;;4986655;28;20258;-84
2023/03/10 06:02:15;;;;;;;3.33;1.35;;;;;;;;;;4984004;28;20292;-84
2023/03/10 06:04:43;;;;;;;2.88;1.17;;;;;;;;;;5005872;28;20258;-84
2023/03/10 06:07:13;;;;;;;2.67;1.70;;;;;;;;;;5011298;28;20250;-84
2023/03/10 06:09:42;;;;;;;5.15;1.90;;;;;;;;;;5020105;28;20202;-84
2023/03/10 06:12:10;;;;;;;8.13;2.28;;;;;;;;;;5020374;28;20209;-85
2023/03/10 06:14:40;;;;;;;2.65;1.20;;;;;;;;;;5010868;28;20230;-85
2023/03/10 06:17:10;;;;;;;6.22;2.40;;;;;;;;;;4985514;28;20290;-85
2023/03/10 06:19:38;;;;;;;3.08;1.25;;;;;;;;;;5004761;28;20261;-85
2023/03/10 06:22:06;;;;;;;1.83;1.40;;;;;;;;;;5004135;28;20285;-85
2023/03/10 06:24:35;;;;;;;1.52;1.42;;;;;;;;;;4987108;28;20702;-86
2023/03/10 06:27:04;;;;;;;4.95;1.52;;;;;;;;;;4982625;28;20282;-84
2023/03/10 06:29:32;;;;;;;5.32;2.92;;;;;;;;;;5003974;28;20259;-85
2023/03/10 06:32:01;;;;;;;4.90;1.48;;;;;;;;;;5004387;28;20561;-85
2023/03/10 06:34:33;;;;;;;2.95;1.80;;;;;;;;;;5001672;28;20266;-83
2023/03/10 06:37:01;;;;;;;1.50;1.40;;;;;;;;;;5004777;28;20282;-83
2023/03/10 06:39:30;;;;;;;4.10;1.65;;;;;;;;;;5003208;28;20262;-85
2023/03/10 06:42:01;;;;;;;2.35;1.42;;;;;;;;;;5004735;28;20353;-84
2023/03/10 06:44:29;;;;;;;1.75;1.48;;;;;;;;;;5001808;28;20857;-84
2023/03/10 06:46:58;;;;;;;8.98;1.65;;;;;;;;;;5002211;28;20294;-83
2023/03/10 06:49:29;;;;;;;7.05;2.05;;;;;;;;;;4981811;28;20255;-87
2023/03/10 06:52:00;;;;;;;2.63;1.65;;;;;;;;;;5001069;28;20270;-84
2023/03/10 06:54:28;;;;;;;2.45;1.52;;;;;;;;;;5017687;28;20341;-85
2023/03/10 06:56:56;;;;;;;2.13;1.23;;;;;;;;;;5001510;28;20300;-83
2023/03/10 06:59:27;;;;;;;4.50;1.67;;;;;;;;;;5001389;28;20575;-86
2023/03/10 07:01:55;;;;;;;1.45;1.10;;;;;;;;;;4985438;28;20286;-84
2023/03/10 07:04:24;;;;;;;1.80;1.20;;;;;;;;;;5001791;28;20258;-83
2023/03/10 07:06:52;;;;;;;3.80;1.60;;;;;;;;;;5003101;28;20259;-84
2023/03/10 07:09:22;;;;;;;4.47;2.08;;;;;;;;;;5003741;28;20281;-84
2023/03/10 07:11:50;;;;;;;3.45;1.48;;;;;;;;;;5002643;28;20349;-84
2023/03/10 07:14:19;;;;;;;3.25;1.60;;;;;;;;;;5000499;28;20294;-84
2023/03/10 07:16:48;;;;;;;3.58;1.50;;;;;;;;;;4983997;28;20210;-84
2023/03/10 07:19:16;;;;;;;3.17;1.40;;;;;;;;;;5000976;28;20287;-83
2023/03/10 07:21:44;;;;;;;6.82;1.52;;;;;;;;;;5001384;28;20264;-85
2023/03/10 07:24:13;;;;;;;3.20;1.10;;;;;;;;;;5001287;28;20282;-83
2023/03/10 07:26:42;;;;;;;1.70;1.20;;;;;;;;;;4980340;28;20199;-86
2023/03/10 07:29:11;;;;;;;3.33;1.23;;;;;;;;;;4991216;28;20677;-85
2023/03/10 07:31:39;;;;;;;4.40;1.08;;;;;;;;;;5000278;28;20254;-84
2023/03/10 07:34:07;;;;;;;1.42;1.00;;;;;;;;;;5002158;28;20234;-85
2023/03/10 07:36:36;;;;;;;1.20;0.70;;;;;;;;;;5000789;28;20255;-85
2023/03/10 07:39:04;;;;;;;1.25;0.90;;;;;;;;;;5002755;28;20309;-84
2023/03/10 07:41:33;;;;;;;0.70;0.70;;;;;;;;;;5001144;28;20285;-84
2023/03/10 07:44:02;;;;;;;1.10;0.77;;;;;;;;;;5000754;28;20279;-84
2023/03/10 07:46:31;;;;;;;1.05;0.93;;;;;;;;;;5002370;28;20631;-85
2023/03/10 07:49:03;;;;;;;2.50;1.00;;;;;;;;;;5001340;28;20277;-84
2023/03/10 07:51:32;;;;;;;2.05;0.80;;;;;;;;;;5001275;28;20273;-83
2023/03/10 07:54:00;;;;;;;1.85;0.60;;;;;;;;;;5004531;28;20313;-83
2023/03/10 07:56:28;;;;;;;1.77;0.80;;;;;;;;;;4998555;28;20266;-84
2023/03/10 07:58:57;;;;;;;3.95;1.70;;;;;;;;;;5000537;28;20340;-83
2023/03/10 08:01:26;;;;;;;2.65;1.10;;;;;;;;;;4992564;28;20281;-83
2023/03/10 08:03:55;;;;;;;2.78;1.00;;;;;;;;;;4999149;28;20298;-84
2023/03/10 08:06:24;;;;;;;3.20;1.60;;;;;;;;;;5001111;28;20242;-84
2023/03/10 08:08:53;;;;;;;1.83;1.25;;;;;;;;;;5000152;28;20226;-84
2023/03/10 08:11:21;;;;;;;1.40;1.30;;;;;;;;;;5000468;28;20709;-85
2023/03/10 08:13:50;;;;;;;3.08;0.90;;;;;;;;;;5000287;28;20207;-85
2023/03/10 08:16:20;;;;;;;4.40;1.00;;;;;;;;;;5000005;28;20295;-83
2023/03/10 08:18:52;;;;;;;3.35;1.60;;;;;;;;;;4993831;28;20258;-82
2023/03/10 08:21:20;;;;;;;1.95;0.93;;;;;;;;;;4998567;28;20258;-83
2023/03/10 08:23:49;;;;;;;8.85;2.10;;;;;;;;;;4999609;28;20290;-83
2023/03/10 08:26:18;;;;;;;4.93;1.50;;;;;;;;;;5000808;28;20282;-82
2023/03/10 08:28:46;;;;;;;3.03;1.40;;;;;;;;;;4999313;28;20213;-82
2023/03/10 08:31:16;;;;;;;3.85;1.92;;;;;;;;;;4999184;28;20266;-83
2023/03/10 08:33:44;;;;;;;4.53;1.40;;;;;;;;;;4991269;28;20281;-84
2023/03/10 08:36:17;;;;;;;3.33;1.80;;;;;;;;;;5000724;28;20776;-85
2023/03/10 08:38:46;;;;;;;8.25;2.17;;;;;;;;;;4998663;28;20282;-84
2023/03/10 08:41:15;;;;;;;4.70;1.95;;;;;;;;;;4999591;28;20281;-85
2023/03/10 08:43:44;;;;;;;6.63;1.65;;;;;;;;;;5001913;28;20293;-85
2023/03/10 08:46:13;;;;;;;3.95;1.55;;;;;;;;;;4998324;28;20242;-84
2023/03/10 08:48:41;;;;;;;5.47;1.45;;;;;;;;;;4980618;28;20330;-85
2023/03/10 08:51:10;;;;;;;7.15;1.70;;;;;;;;;;4983039;28;20344;-85
2023/03/10 08:53:39;;;;;;;5.50;1.75;;;;;;;;;;4999753;28;20632;-85
2023/03/10 08:56:08;;;;;;;5.05;1.92;;;;;;;;;;5000874;28;20277;-84
2023/03/10 08:58:36;;;;;;;10.63;1.60;;;;;;;;;;4983438;28;20753;-84
2023/03/10 09:01:05;;;;;;;7.90;2.15;;;;;;;;;;4998976;28;20281;-85
2023/03/10 09:03:35;;;;;;;6.50;2.65;;;;;;;;;;4999831;28;20277;-84
2023/03/10 09:06:06;;;;;;;2.85;1.33;;;;;;;;;;4979537;28;20274;-85
2023/03/10 09:08:34;;;;;;;9.40;2.35;;;;;;;;;;4997314;28;20340;-85
2023/03/10 09:11:04;;;;;;;2.95;1.40;;;;;;;;;;5000917;28;20286;-85
2023/03/10 09:13:32;;;;;;;6.22;1.65;;;;;;;;;;5000697;28;20281;-85
2023/03/10 09:16:01;;;;;;;5.03;1.40;;;;;;;;;;4998752;28;20236;-83
2023/03/10 09:18:29;;;;;;;4.20;1.95;;;;;;;;;;4999390;28;20222;-83
2023/03/10 09:20:57;;;;;;;7.35;2.35;;;;;;;;;;4996924;28;20197;-84
2023/03/10 09:23:25;;;;;;;6.65;2.25;;;;;;;;;;4976407;28;20206;-85
2023/03/10 09:25:54;;;;;;;5.57;2.50;;;;;;;;;;4979066;28;20203;-84
2023/03/10 09:28:23;;;;;;;13.75;1.98;;;;;;;;;;4990470;28;20199;-84
2023/03/10 09:30:53;;;;;;;4.55;1.45;;;;;;;;;;4994252;28;20198;-84
2023/03/10 09:33:22;;;;;;;5.57;1.60;;;;;;;;;;4995621;28;20195;-84
2023/03/10 09:35:51;;;;;;;4.55;1.42;;;;;;;;;;4972143;28;20601;-84
2023/03/10 09:38:22;;;;;;;6.63;1.40;;;;;;;;;;4991135;28;20592;-84
2023/03/10 09:40:52;;;;;;;8.38;1.67;;;;;;;;;;4996188;28;20305;-84
2023/03/10 09:43:21;;;;;;;7.95;2.10;;;;;;;;;;4995389;28;20265;-85
2023/03/10 09:45:54;;;;;;;5.75;1.90;;;;;;;;;;4976800;28;20290;-84
2023/03/10 09:48:28;;;;;;;7.45;2.28;;;;;;;;;;4993472;28;20198;-84
2023/03/10 09:50:58;;;;;;;8.48;2.53;;;;;;;;;;4996315;28;20209;-85
2023/03/10 09:53:30;;;;;;;5.35;1.80;;;;;;;;;;4996987;28;20276;-85
2023/03/10 09:55:58;;;;;;;8.05;2.30;;;;;;;;;;4998625;28;20270;-85
2023/03/10 09:58:31;;;;;;;6.13;2.10;;;;;;;;;;4998871;28;20301;-84
2023/03/10 10:01:01;;;;;;;8.77;2.70;;;;;;;;;;4997727;28;20270;-84
2023/03/10 10:03:32;;;;;;;6.25;1.73;;;;;;;;;;4999258;28;20324;-83
2023/03/10 10:06:05;;;;;;;4.22;1.40;;;;;;;;;;4998598;28;20274;-84
2023/03/10 10:08:39;;;;;;;3.38;1.95;;;;;;;;;;4980743;28;20230;-84
2023/03/10 10:11:10;;;;;;;7.55;1.40;;;;;;;;;;4999315;28;20269;-84
2023/03/10 10:13:38;;;;;;;6.05;2.08;;;;;;;;;;4999945;28;20554;-85
2023/03/10 10:16:15;;;;;;;2.95;1.40;;;;;;;;;;4998260;28;20273;-83
2023/03/10 10:18:49;;;;;;;2.80;1.10;;;;;;;;;;4998147;28;20297;-83
2023/03/10 10:21:20;;;;;;;6.10;1.52;;;;;;;;;;4999529;28;20273;-83
2023/03/10 10:23:49;;;;;;;3.25;1.35;;;;;;;;;;4999676;28;20285;-83
2023/03/10 10:26:19;;;;;;;4.07;1.45;;;;;;;;;;5003778;28;20279;-84
2023/03/10 10:28:49;;;;;;;3.10;1.35;;;;;;;;;;4988719;28;20287;-83
2023/03/10 10:31:20;;;;;;;3.58;1.45;;;;;;;;;;5000693;28;20262;-84
2023/03/10 10:33:55;;;;;;;1.25;1.15;;;;;;;;;;4996929;28;20206;-83
2023/03/10 10:36:24;;;;;;;1.25;0.90;;;;;;;;;;4996941;28;20273;-84
2023/03/10 10:38:54;;;;;;;2.60;0.80;;;;;;;;;;4998703;28;20310;-82
2023/03/10 10:41:24;;;;;;;1.25;0.95;;;;;;;;;;4996192;28;20254;-83
2023/03/10 10:43:53;;;;;;;2.65;0.90;;;;;;;;;;4999117;28;20251;-83
2023/03/10 10:46:26;;;;;;;1.25;0.77;;;;;;;;;;5001679;28;20225;-84
2023/03/10 10:49:02;;;;;;;3.05;1.00;;;;;;;;;;4981406;28;20186;-84
2023/03/10 10:51:33;;;;;;;1.98;0.98;;;;;;;;;;4983210;28;20278;-84
2023/03/10 10:54:03;;;;;;;3.35;1.23;;;;;;;;;;4963899;28;20293;-84
2023/03/10 10:56:31;;;;;;;2.47;0.90;;;;;;;;;;4981474;28;20234;-84
2023/03/10 10:59:05;;;;;;;1.67;1.00;;;;;;;;;;4980052;28;20231;-84
2023/03/10 11:01:51;;;;;;;1.88;1.00;;;;;;;;;;4998012;28;20310;-84
2023/03/10 11:04:20;;;;;;;2.20;1.20;;;;;;;;;;4996346;28;20202;-84
2023/03/10 11:06:48;;;;;;;3.00;1.23;;;;;;;;;;5000543;28;20305;-84
2023/03/10 11:09:17;;;;;;;0.80;0.80;;;;;;;;;;4998322;28;20214;-84
2023/03/10 11:11:51;;;;;;;6.75;1.98;;;;;;;;;;4999075;28;20297;-83
2023/03/10 11:14:40;;;;;;;0.90;0.85;;;;;;;;;;4995902;28;20292;-84
2023/03/10 11:17:14;;;;;;;1.45;1.10;;;;;;;;;;4999645;28;20697;-84
2023/03/10 11:19:49;;;;;;;2.08;0.95;;;;;;;;;;4979764;28;20299;-84
2023/03/10 11:22:22;;;;;;;2.55;1.02;;;;;;;;;;4980679;28;20187;-84
2023/03/10 11:24:53;;;;;;;2.67;0.90;;;;;;;;;;4995089;28;20199;-86
2023/03/10 11:27:24;;;;;;;5.35;1.13;;;;;;;;;;4991279;28;20195;-83
2023/03/10 11:30:01;;;;;;;4.20;1.27;;;;;;;;;;5000450;28;20269;-84
2023/03/10 11:32:39;;;;;;;3.45;0.88;;;;;;;;;;5000529;28;20246;-84
2023/03/10 11:35:14;;;;;;;3.03;2.10;;;;;;;;;;4998231;28;20202;-84
2023/03/10 11:37:45;;;;;;;0.90;0.70;;;;;;;;;;5000635;28;20244;-84
2023/03/10 11:40:19;;;;;;;3.30;0.98;;;;;;;;;;5000011;28;20279;-85
2023/03/10 11:42:51;;;;;;;2.90;0.80;;;;;;;;;;4999055;28;20609;-84
2023/03/10 11:45:29;;;;;;;1.23;0.70;;;;;;;;;;4998741;28;20273;-84
2023/03/10 11:48:02;;;;;;;1.70;0.80;;;;;;;;;;4999410;28;20191;-85
2023/03/10 11:50:35;;;;;;;0.70;0.60;;;;;;;;;;4999521;28;20258;-84
2023/03/10 11:53:06;;;;;;;1.60;0.60;;;;;;;;;;4999266;28;20305;-84
2023/03/10 11:55:35;;;;;;;1.15;0.60;;;;;;;;;;4999414;28;20650;-83
2023/03/10 11:58:04;;;;;;;0.70;0.60;;;;;;;;;;5001461;28;20278;-84
2023/03/10 12:00:35;;;;;;;3.30;1.02;;;;;;;;;;5003852;28;20258;-84
2023/03/10 12:03:08;;;;;;;1.50;0.80;;;;;;;;;;5003755;28;20281;-83
2023/03/10 12:05:43;;;;;;;0.80;0.70;;;;;;;;;;5004847;28;20186;-83
2023/03/10 12:08:13;;;;;;;2.20;0.80;;;;;;;;;;5014247;28;20230;-84
2023/03/10 12:10:42;;;;;;;1.05;0.70;;;;;;;;;;4998068;28;20230;-82
2023/03/10 12:13:19;;;;;;;1.15;0.77;;;;;;;;;;5014718;28;20215;-84
2023/03/10 12:15:48;;;;;;;0.70;0.70;;;;;;;;;;5000161;28;20263;-83
2023/03/10 12:18:18;;;;;;;0.80;0.60;;;;;;;;;;4999407;28;20770;-83
2023/03/10 12:20:47;;;;;;;2.35;0.75;;;;;;;;;;5001484;28;20202;-84
2023/03/10 12:23:36;;;;;;;0.70;0.70;;;;;;;;;;4999407;28;20684;-84
2023/03/10 12:26:05;;;;;;;0.57;0.57;;;;;;;;;;4996391;28;20289;-85
2023/03/10 12:28:33;;;;;;;1.77;0.70;;;;;;;;;;4997888;28;20214;-85
2023/03/10 12:31:02;;;;;;;2.50;0.70;;;;;;;;;;4982831;28;20647;-85
2023/03/10 12:33:51;;;;;;;1.17;0.70;;;;;;;;;;4993748;28;20740;-83
2023/03/10 12:36:32;;;;;;;0.60;0.60;;;;;;;;;;4998697;28;20716;-85
2023/03/10 12:39:01;;;;;;;1.80;0.70;;;;;;;;;;4997215;28;20765;-84
2023/03/10 12:41:46;;;;;;;1.38;0.80;;;;;;;;;;4976427;28;20286;-85
2023/03/10 12:44:36;;;;;;;0.50;0.50;;;;;;;;;;5000967;28;20293;-86
2023/03/10 12:47:14;;;;;;;0.80;0.70;;;;;;;;;;5000294;28;20257;-86
2023/03/10 12:49:47;;;;;;;0.80;0.80;;;;;;;;;;4982335;28;20206;-86
2023/03/10 12:52:20;;;;;;;0.60;0.60;;;;;;;;;;4983474;28;20318;-88
2023/03/10 12:54:52;;;;;;;0.90;0.65;;;;;;;;;;4989972;28;20293;-88
2023/03/10 12:57:23;;;;;;;0.80;0.80;;;;;;;;;;4999303;28;20206;-86
2023/03/10 13:00:00;;;;;;;3.60;0.85;;;;;;;;;;4998604;28;20218;-87
2023/03/10 13:02:33;;;;;;;0.60;0.60;;;;;;;;;;4999920;28;20277;-88
2023/03/10 13:05:03;;;;;;;0.60;0.60;;;;;;;;;;4998996;28;20195;-87
2023/03/10 13:07:32;;;;;;;0.60;0.50;;;;;;;;;;4998625;28;20305;-88
2023/03/10 13:10:02;;;;;;;2.03;0.80;;;;;;;;;;5000657;28;20201;-87
2023/03/10 13:12:34;;;;;;;1.73;0.77;;;;;;;;;;4998311;28;20199;-87
2023/03/10 13:15:06;;;;;;;0.63;0.60;;;;;;;;;;4983276;28;20222;-87
2023/03/10 13:17:35;;;;;;;0.70;0.70;;;;;;;;;;4997375;28;20364;-87
2023/03/10 13:20:07;;;;;;;1.30;0.63;;;;;;;;;;4996610;28;20772;-88
2023/03/10 13:22:37;;;;;;;0.70;0.70;;;;;;;;;;5004200;28;20206;-87
2023/03/10 13:25:06;;;;;;;0.80;0.80;;;;;;;;;;4986734;28;20263;-88
2023/03/10 13:27:35;;;;;;;0.70;0.70;;;;;;;;;;5001805;28;20210;-89
2023/03/10 13:30:07;;;;;;;0.70;0.70;;;;;;;;;;5009471;28;20290;-89
2023/03/10 13:32:36;;;;;;;1.25;0.60;;;;;;;;;;4984209;28;20196;-89
2023/03/10 13:35:19;;;;;;;0.90;0.90;;;;;;;;;;5002345;28;20191;-88
2023/03/10 13:38:03;;;;;;;0.85;0.70;;;;;;;;;;4983738;28;20251;-86
2023/03/10 13:40:31;;;;;;;1.00;0.90;;;;;;;;;;4999063;28;20219;-86
2023/03/10 13:42:59;;;;;;;0.60;0.60;;;;;;;;;;4999747;28;20298;-86
2023/03/10 13:45:32;;;;;;;1.25;0.90;;;;;;;;;;4998004;28;20199;-86
2023/03/10 13:48:01;;;;;;;1.65;0.80;;;;;;;;;;5000805;28;20281;-86
2023/03/10 13:50:29;;;;;;;0.90;0.80;;;;;;;;;;4996356;28;20258;-87
2023/03/10 13:52:59;;;;;;;0.90;0.68;;;;;;;;;;4995686;28;20256;-87
2023/03/10 13:55:28;;;;;;;0.70;0.70;;;;;;;;;;4999007;28;20293;-86
2023/03/10 13:57:58;;;;;;;0.68;0.68;;;;;;;;;;4999050;28;20340;-87
2023/03/10 14:00:27;;;;;;;0.90;0.90;;;;;;;;;;4998391;28;20243;-87
2023/03/10 14:02:55;;;;;;;1.13;0.85;;;;;;;;;;4982552;28;20266;-87
2023/03/10 14:05:44;;;;;;;0.70;0.70;;;;;;;;;;5000811;28;20270;-87
2023/03/10 14:08:22;;;;;;;0.65;0.60;;;;;;;;;;4998418;28;20222;-87
2023/03/10 14:10:50;;;;;;;2.17;0.80;;;;;;;;;;5001105;28;20266;-87
2023/03/10 14:13:37;;;;;;;0.60;0.60;;;;;;;;;;4984079;28;20273;-87
2023/03/10 14:16:06;;;;;;;0.60;0.60;;;;;;;;;;5001820;28;20274;-88
2023/03/10 14:18:35;;;;;;;0.70;0.68;;;;;;;;;;5000825;28;20262;-87
2023/03/10 14:21:24;;;;;;;0.50;0.50;;;;;;;;;;5004666;28;20310;-86
2023/03/10 14:23:56;;;;;;;0.60;0.60;;;;;;;;;;4998745;28;20786;-85
2023/03/10 14:26:24;;;;;;;0.70;0.70;;;;;;;;;;4985681;28;20264;-87
2023/03/10 14:28:53;;;;;;;1.63;0.68;;;;;;;;;;5012385;28;20274;-86
2023/03/10 14:31:23;;;;;;;1.08;0.50;;;;;;;;;;4985836;28;20271;-86
2023/03/10 14:33:52;;;;;;;0.85;0.70;;;;;;;;;;4985703;28;20564;-86
2023/03/10 14:36:24;;;;;;;1.27;0.50;;;;;;;;;;4983097;28;20280;-86
2023/03/10 14:38:52;;;;;;;0.70;0.60;;;;;;;;;;4985133;28;20211;-86
2023/03/10 14:41:24;;;;;;;0.50;0.50;;;;;;;;;;5002468;28;20368;-87
2023/03/10 14:43:52;;;;;;;0.93;0.60;;;;;;;;;;5004798;28;20194;-87
2023/03/10 14:46:21;;;;;;;1.05;0.63;;;;;;;;;;5003493;28;20274;-88
2023/03/10 14:48:49;;;;;;;0.80;0.80;;;;;;;;;;5004863;28;20242;-87
2023/03/10 14:51:19;;;;;;;1.00;0.60;;;;;;;;;;5002632;28;20293;-87
2023/03/10 14:53:47;;;;;;;0.90;0.70;;;;;;;;;;5002406;28;20298;-88
2023/03/10 14:56:17;;;;;;;1.45;0.73;;;;;;;;;;5002301;28;20270;-87
2023/03/10 14:58:48;;;;;;;0.90;0.88;;;;;;;;;;5000889;28;20285;-87
2023/03/10 15:01:17;;;;;;;0.77;0.77;;;;;;;;;;5001415;28;20321;-86
2023/03/10 15:03:47;;;;;;;1.35;0.73;;;;;;;;;;4984091;28;20286;-87